Shinsei Maru — JD2188 — position and weather

sailwx.info

Track history (hours):
 
Tides and Currents Weather Stations Pressure Air Temp Water Temp Dewpoint Dewpoint Depression Visibility Wind Speed Wind Dir Waves Ship Positions

Shinsei Maru

Last reported at 2016-Sep-25 12:33 UTC. Time now 2016-Sep-26 10:32 UTC.
Position N 35°07' E 139°42'.

Length 104 m; draft 6.5 m.

Type: Tanker. MMSI: 431301775.

Date/timePositionNaut miles runAvg speedWind from/ knotsBaromVisibWave heightAir tempDewpointWater temp
2016-Sep-25 12:33N 35°07' E 139°42'1211.8
2016-Sep-25 11:33N 35°19' E 139°43'1211.6
2016-Sep-25 10:33N 35°30' E 139°47'1 1.1
2016-Sep-25 09:32N 35°31' E 139°46'0 0.0
2016-Sep-25 07:32N 35°31' E 139°46'0 0.0
2016-Sep-25 04:26N 35°31' E 139°46'0 0.0
2016-Sep-25 00:32N 35°31' E 139°46'0 0.0
2016-Sep-24 22:29N 35°31' E 139°46'4 4.8
2016-Sep-24 21:33N 35°27' E 139°43'4 2.0
2016-Sep-24 19:31N 35°23' E 139°44'0 0.0
2016-Sep-24 18:31N 35°23' E 139°44'0 0.0
2016-Sep-24 17:31N 35°23' E 139°44'0 0.0
2016-Sep-24 16:31N 35°23' E 139°44'0 0.0
2016-Sep-24 14:31N 35°23' E 139°44'0 0.0
2016-Sep-24 12:31N 35°23' E 139°44'0 0.0
2016-Sep-24 10:31N 35°23' E 139°44'0 0.0
2016-Sep-24 09:31N 35°23' E 139°44'0 0.0
2016-Sep-24 03:31N 35°23' E 139°44'0 0.0
2016-Sep-24 02:31N 35°23' E 139°44'0 0.0
2016-Sep-24 01:31N 35°23' E 139°44'0 0.1
2016-Sep-24 00:31N 35°23' E 139°44'0 0.0
2016-Sep-23 19:31N 35°23' E 139°44'0 0.0
2016-Sep-23 17:31N 35°23' E 139°44'0 0.0
2016-Sep-23 16:31N 35°23' E 139°44'0 0.0
2016-Sep-23 15:31N 35°23' E 139°44'0 0.0
2016-Sep-23 13:31N 35°23' E 139°44'0 0.0
2016-Sep-23 09:31N 35°23' E 139°44'0 0.0
2016-Sep-23 06:31N 35°23' E 139°44'0 0.0
2016-Sep-23 04:31N 35°23' E 139°44'0 0.0
2016-Sep-23 03:31N 35°23' E 139°44'0 0.0
2016-Sep-23 02:31N 35°23' E 139°44'8 8.0
2016-Sep-23 01:33N 35°16' E 139°46'1212.1
2016-Sep-23 00:33N 35°04' E 139°42'  
Track history (hours):
 
Tides and Currents Weather Stations Pressure Air Temp Water Temp Dewpoint Dewpoint Depression Visibility Wind Speed Wind Dir Waves Ship Positions

Shinsei Maru

Last reported at 2016-Sep-25 12:33 UTC. Time now 2016-Sep-26 10:32 UTC.
Position N 35°07' E 139°42'.

Length 104 m; draft 6.5 m.

Type: Tanker. MMSI: 431301775.

Date/timePositionNaut miles runAvg speedWind from/ knotsBaromVisibWave heightAir tempDewpointWater temp
2016-Sep-25 12:33N 35°07' E 139°42'1211.8
2016-Sep-25 11:33N 35°19' E 139°43'1211.6
2016-Sep-25 10:33N 35°30' E 139°47'1 1.1
2016-Sep-25 09:32N 35°31' E 139°46'0 0.0
2016-Sep-25 07:32N 35°31' E 139°46'0 0.0
2016-Sep-25 04:26N 35°31' E 139°46'0 0.0
2016-Sep-25 00:32N 35°31' E 139°46'0 0.0
2016-Sep-24 22:29N 35°31' E 139°46'4 4.8
2016-Sep-24 21:33N 35°27' E 139°43'4 2.0
2016-Sep-24 19:31N 35°23' E 139°44'0 0.0
2016-Sep-24 18:31N 35°23' E 139°44'0 0.0
2016-Sep-24 17:31N 35°23' E 139°44'0 0.0
2016-Sep-24 16:31N 35°23' E 139°44'0 0.0
2016-Sep-24 14:31N 35°23' E 139°44'0 0.0
2016-Sep-24 12:31N 35°23' E 139°44'0 0.0
2016-Sep-24 10:31N 35°23' E 139°44'0 0.0
2016-Sep-24 09:31N 35°23' E 139°44'0 0.0
2016-Sep-24 03:31N 35°23' E 139°44'0 0.0
2016-Sep-24 02:31N 35°23' E 139°44'0 0.0
2016-Sep-24 01:31N 35°23' E 139°44'0 0.1
2016-Sep-24 00:31N 35°23' E 139°44'0 0.0
2016-Sep-23 19:31N 35°23' E 139°44'0 0.0
2016-Sep-23 17:31N 35°23' E 139°44'0 0.0
2016-Sep-23 16:31N 35°23' E 139°44'0 0.0
2016-Sep-23 15:31N 35°23' E 139°44'0 0.0
2016-Sep-23 13:31N 35°23' E 139°44'0 0.0
2016-Sep-23 09:31N 35°23' E 139°44'0 0.0
2016-Sep-23 06:31N 35°23' E 139°44'0 0.0
2016-Sep-23 04:31N 35°23' E 139°44'0 0.0
2016-Sep-23 03:31N 35°23' E 139°44'0 0.0
2016-Sep-23 02:31N 35°23' E 139°44'8 8.0
2016-Sep-23 01:33N 35°16' E 139°46'1212.1
2016-Sep-23 00:33N 35°04' E 139°42'  

Dump ship's entire track history